createdAt,value
2019-02-05T00:00:21.596Z,-2.315063
2019-02-05T00:01:33.770Z,-2.335205
2019-02-05T00:02:40.662Z,-2.304993
2019-02-05T00:03:50.161Z,-2.304993
2019-02-05T00:04:59.683Z,-2.304993
2019-02-05T00:06:09.199Z,-2.304993
2019-02-05T00:07:18.746Z,-2.304993
2019-02-05T00:08:28.267Z,-2.284851
2019-02-05T00:09:37.787Z,-2.284851
2019-02-05T00:10:47.310Z,-2.264709
2019-02-05T00:11:56.838Z,-2.264709
2019-02-05T00:13:06.339Z,-2.284851
2019-02-05T00:14:15.879Z,-2.264709
2019-02-05T00:15:25.382Z,-2.284851
2019-02-05T00:16:34.899Z,-2.284851
2019-02-05T00:17:44.418Z,-2.264709
2019-02-05T00:18:53.942Z,-2.264709
2019-02-05T00:20:03.453Z,-2.264709
2019-02-05T00:21:12.976Z,-2.284851
2019-02-05T00:22:22.501Z,-2.264709
2019-02-05T00:23:32.025Z,-2.284851
2019-02-05T00:24:41.534Z,-2.304993
2019-02-05T00:25:51.050Z,-2.284851
2019-02-05T00:27:01.566Z,-2.284851
2019-02-05T00:28:11.063Z,-2.284851
2019-02-05T00:29:20.576Z,-2.284851
2019-02-05T00:30:30.094Z,-2.284851
2019-02-05T00:31:39.720Z,-2.254639
2019-02-05T00:32:49.505Z,-2.264709
2019-02-05T00:33:59.039Z,-2.264709
2019-02-05T00:35:08.546Z,-2.254639
2019-02-05T00:36:18.071Z,-2.264709
2019-02-05T00:37:27.617Z,-2.254639
2019-02-05T00:38:37.124Z,-2.254639
2019-02-05T00:39:46.665Z,-2.264709
2019-02-05T00:40:56.195Z,-2.254639
2019-02-05T00:42:05.712Z,-2.264709
2019-02-05T00:43:15.218Z,-2.254639
2019-02-05T00:44:24.724Z,-2.264709
2019-02-05T00:45:34.260Z,-2.254639
2019-02-05T00:46:43.808Z,-2.254639
2019-02-05T00:47:53.315Z,-2.254639
2019-02-05T00:49:02.836Z,-2.254639
2019-02-05T00:50:12.356Z,-2.234497
2019-02-05T00:51:21.868Z,-2.234497
2019-02-05T00:52:31.419Z,-2.194214
2019-02-05T00:53:40.937Z,-2.194214
2019-02-05T00:54:50.468Z,-2.214355
2019-02-05T00:55:59.978Z,-2.214355
2019-02-05T00:57:10.508Z,-2.214355
2019-02-05T00:58:20.030Z,-2.194214
2019-02-05T00:59:29.575Z,-2.164001
2019-02-05T01:00:39.082Z,-2.184143
2019-02-05T01:01:48.651Z,-2.153931
2019-02-05T01:02:58.160Z,-2.153931
2019-02-05T01:04:07.666Z,-2.164001
2019-02-05T01:05:17.195Z,-2.153931
2019-02-05T01:06:26.724Z,-2.153931
2019-02-05T01:07:36.267Z,-2.164001
2019-02-05T01:08:45.802Z,-2.184143
2019-02-05T01:09:55.326Z,-2.184143
2019-02-05T01:11:04.838Z,-2.194214
2019-02-05T01:12:14.368Z,-2.194214
2019-02-05T01:13:24.880Z,-2.194214
2019-02-05T01:14:34.405Z,-2.194214
2019-02-05T01:15:43.941Z,-2.234497
2019-02-05T01:16:53.475Z,-2.224426
2019-02-05T01:18:02.983Z,-2.224426
2019-02-05T01:19:12.510Z,-2.234497
2019-02-05T01:20:22.104Z,-2.254639
2019-02-05T01:21:31.709Z,-2.234497
2019-02-05T01:22:41.366Z,-2.234497
2019-02-05T01:23:50.946Z,-2.234497
2019-02-05T01:25:00.530Z,-2.224426
2019-02-05T01:26:10.108Z,-2.224426
2019-02-05T01:27:20.698Z,-2.234497
2019-02-05T01:28:30.294Z,-2.254639
2019-02-05T01:29:40.873Z,-2.234497
2019-02-05T01:30:50.454Z,-2.254639
2019-02-05T01:32:00.113Z,-2.264709
2019-02-05T01:33:09.704Z,-2.254639
2019-02-05T01:34:19.343Z,-2.254639
2019-02-05T01:35:28.931Z,-2.254639
2019-02-05T01:36:38.507Z,-2.264709
2019-02-05T01:37:48.127Z,-2.264709
2019-02-05T01:38:58.759Z,-2.254639
2019-02-05T01:40:08.359Z,-2.264709
2019-02-05T01:41:17.949Z,-2.254639
2019-02-05T01:42:27.487Z,-2.254639
2019-02-05T01:43:37.017Z,-2.254639
2019-02-05T01:44:46.538Z,-2.254639
2019-02-05T01:45:56.079Z,-2.254639
2019-02-05T01:47:05.605Z,-2.234497
2019-02-05T01:48:15.134Z,-2.234497
2019-02-05T01:49:24.674Z,-2.234497
2019-02-05T01:50:34.195Z,-2.194214
2019-02-05T01:51:43.708Z,-2.224426
2019-02-05T01:52:53.255Z,-2.194214
2019-02-05T01:54:02.774Z,-2.224426
2019-02-05T01:55:13.300Z,-2.224426
2019-02-05T01:56:22.862Z,-2.194214
2019-02-05T01:57:33.377Z,-2.194214
2019-02-05T01:58:42.884Z,-2.194214
2019-02-05T01:59:52.452Z,-2.184143
2019-02-05T02:01:01.981Z,-2.184143
2019-02-05T02:02:11.492Z,-2.184143
2019-02-05T02:03:21.067Z,-2.184143
2019-02-05T02:04:30.606Z,-2.164001
2019-02-05T02:05:40.115Z,-2.164001
2019-02-05T02:06:49.624Z,-2.164001
2019-02-05T02:07:59.170Z,-2.164001
2019-02-05T02:09:08.683Z,-2.133789
2019-02-05T02:10:18.197Z,-2.153931
2019-02-05T02:11:27.714Z,-2.123718
2019-02-05T02:12:37.243Z,-2.123718
2019-02-05T02:13:46.764Z,-2.103577
2019-02-05T02:14:56.284Z,-2.103577
2019-02-05T02:16:05.802Z,-2.123718
2019-02-05T02:17:15.335Z,-2.103577
2019-02-05T02:18:24.871Z,-2.083435
2019-02-05T02:19:34.383Z,-2.083435
2019-02-05T02:20:43.887Z,-2.073364
2019-02-05T02:21:53.398Z,-2.083435
2019-02-05T02:23:02.925Z,-2.083435
2019-02-05T02:24:12.441Z,-2.073364
2019-02-05T02:25:21.963Z,-2.073364
2019-02-05T02:26:31.475Z,-2.073364
2019-02-05T02:27:40.980Z,-2.073364
2019-02-05T02:28:50.585Z,-2.073364
2019-02-05T02:30:00.036Z,-2.053223
2019-02-05T02:31:09.567Z,-2.043152
2019-02-05T02:32:19.105Z,-2.02301
2019-02-05T02:33:28.635Z,-2.02301
2019-02-05T02:34:38.154Z,-2.002869
2019-02-05T02:35:47.670Z,-1.982727
2019-02-05T02:36:57.195Z,-2.002869
2019-02-05T02:38:06.728Z,-2.002869
2019-02-05T02:39:17.241Z,-1.982727
2019-02-05T02:40:26.754Z,-1.982727
2019-02-05T02:41:36.299Z,-1.982727
2019-02-05T02:42:45.838Z,-2.002869
2019-02-05T02:43:55.363Z,-1.982727
2019-02-05T02:45:04.864Z,-1.982727
2019-02-05T02:46:14.376Z,-1.982727
2019-02-05T02:47:23.883Z,-2.002869
2019-02-05T02:48:33.401Z,-1.982727
2019-02-05T02:49:42.918Z,-2.002869
2019-02-05T02:50:52.453Z,-2.002869
2019-02-05T02:52:01.956Z,-2.012939
2019-02-05T02:53:12.484Z,-2.02301
2019-02-05T02:54:22.013Z,-2.053223
2019-02-05T02:55:31.528Z,-2.053223
2019-02-05T02:56:41.035Z,-2.053223
2019-02-05T02:57:50.541Z,-2.073364
2019-02-05T02:59:00.058Z,-2.053223
2019-02-05T03:00:09.576Z,-2.083435
2019-02-05T03:01:19.092Z,-2.073364
2019-02-05T03:02:28.593Z,-2.073364
2019-02-05T03:03:38.123Z,-2.073364
2019-02-05T03:04:47.644Z,-2.073364
2019-02-05T03:05:57.155Z,-2.083435
2019-02-05T03:07:06.673Z,-2.103577
2019-02-05T03:08:17.200Z,-2.103577
2019-02-05T03:09:26.711Z,-2.123718
2019-02-05T03:10:36.227Z,-2.123718
2019-02-05T03:11:45.749Z,-2.123718
2019-02-05T03:12:55.312Z,-2.133789
2019-02-05T03:14:04.850Z,-2.123718
2019-02-05T03:15:14.359Z,-2.133789
2019-02-05T03:16:23.873Z,-2.123718
2019-02-05T03:17:33.418Z,-2.153931
2019-02-05T03:18:42.931Z,-2.123718
2019-02-05T03:19:52.462Z,-2.123718
2019-02-05T03:21:01.975Z,-2.103577
2019-02-05T03:22:11.515Z,-2.133789
2019-02-05T03:23:21.021Z,-2.103577
2019-02-05T03:24:30.567Z,-2.123718
2019-02-05T03:25:40.084Z,-2.123718
2019-02-05T03:26:49.607Z,-2.123718
2019-02-05T03:27:59.131Z,-2.133789
2019-02-05T03:29:08.643Z,-2.133789
2019-02-05T03:30:18.242Z,-2.133789
2019-02-05T03:31:27.682Z,-2.153931
2019-02-05T03:32:37.208Z,-2.133789
2019-02-05T03:33:46.740Z,-2.153931
2019-02-05T03:34:56.264Z,-2.153931
2019-02-05T03:36:05.776Z,-2.153931
2019-02-05T03:37:15.333Z,-2.164001
2019-02-05T03:38:24.850Z,-2.164001
2019-02-05T03:39:34.431Z,-2.184143
2019-02-05T03:40:43.910Z,-2.164001
2019-02-05T03:41:53.439Z,-2.164001
2019-02-05T03:43:02.986Z,-2.164001
2019-02-05T03:44:12.498Z,-2.164001
2019-02-05T03:45:22.029Z,-2.184143
2019-02-05T03:46:31.536Z,-2.184143
2019-02-05T03:47:41.107Z,-2.184143
2019-02-05T03:48:50.619Z,-2.184143
2019-02-05T03:50:00.198Z,-2.194214
2019-02-05T03:51:09.660Z,-2.194214
2019-02-05T03:52:19.213Z,-2.194214
2019-02-05T03:53:28.740Z,-2.224426
2019-02-05T03:54:38.256Z,-2.214355
2019-02-05T03:55:47.769Z,-2.214355
2019-02-05T03:56:57.296Z,-2.214355
2019-02-05T03:58:06.842Z,-2.214355
2019-02-05T03:59:16.367Z,-2.224426
2019-02-05T04:00:25.886Z,-2.234497
2019-02-05T04:01:36.381Z,-2.234497
2019-02-05T04:02:45.942Z,-2.254639
2019-02-05T04:03:55.481Z,-2.264709
2019-02-05T04:05:05.013Z,-2.264709
2019-02-05T04:06:14.546Z,-2.264709
2019-02-05T04:07:24.068Z,-2.264709
2019-02-05T04:08:33.619Z,-2.264709
2019-02-05T04:09:43.137Z,-2.304993
2019-02-05T04:10:52.650Z,-2.284851
2019-02-05T04:12:02.165Z,-2.315063
2019-02-05T04:13:11.683Z,-2.315063
2019-02-05T04:14:21.189Z,-2.345276
2019-02-05T04:15:30.688Z,-2.365417
2019-02-05T04:16:40.196Z,-2.375488
2019-02-05T04:17:49.724Z,-2.39563
2019-02-05T04:18:59.241Z,-2.375488
2019-02-05T04:20:08.755Z,-2.39563
2019-02-05T04:21:18.294Z,-2.375488
2019-02-05T04:22:27.795Z,-2.375488
2019-02-05T04:23:37.338Z,-2.365417
2019-02-05T04:24:46.855Z,-2.405701
2019-02-05T04:25:56.364Z,-2.375488
2019-02-05T04:27:05.899Z,-2.415771
2019-02-05T04:28:15.427Z,-2.435913
2019-02-05T04:29:24.960Z,-2.466125
2019-02-05T04:30:34.468Z,-2.445984
2019-02-05T04:31:44.978Z,-2.476196
2019-02-05T04:32:54.492Z,-2.496338
2019-02-05T04:34:04.030Z,-2.516479
2019-02-05T04:35:13.557Z,-2.52655
2019-02-05T04:36:23.060Z,-2.52655
2019-02-05T04:37:32.596Z,-2.546692
2019-02-05T04:38:42.123Z,-2.576904
2019-02-05T04:39:51.635Z,-2.586975
2019-02-05T04:41:01.148Z,-2.597046
2019-02-05T04:42:10.697Z,-2.617188
2019-02-05T04:43:20.219Z,-2.6474
2019-02-05T04:44:29.744Z,-2.657471
2019-02-05T04:45:39.269Z,-2.707825
2019-02-05T04:46:48.781Z,-2.727966
2019-02-05T04:47:58.293Z,-2.77832
2019-02-05T04:49:07.832Z,-2.808533
2019-02-05T04:50:17.427Z,-2.879028
2019-02-05T04:51:26.840Z,-2.909241
2019-02-05T04:52:36.353Z,-2.909241
2019-02-05T04:53:45.880Z,-2.919312
2019-02-05T04:54:55.387Z,-2.949524
2019-02-05T04:56:04.925Z,-2.949524
2019-02-05T04:57:14.438Z,-2.969666
2019-02-05T04:58:23.957Z,-2.979736
2019-02-05T04:59:33.471Z,-2.979736
2019-02-05T05:00:42.989Z,-2.989807
2019-02-05T05:01:52.523Z,-3.040161
2019-02-05T05:03:02.050Z,-3.070374
2019-02-05T05:04:11.636Z,-3.15094
2019-02-05T05:05:21.144Z,-3.191223
2019-02-05T05:06:30.659Z,-3.221436
2019-02-05T05:07:40.170Z,-3.231506
2019-02-05T05:08:49.726Z,-3.251648
2019-02-05T05:09:59.250Z,-3.251648
2019-02-05T05:11:08.773Z,-3.251648
2019-02-05T05:12:18.286Z,-3.191223
2019-02-05T05:13:27.830Z,-3.161011
2019-02-05T05:14:37.363Z,-3.15094
2019-02-05T05:15:46.857Z,-3.201294
2019-02-05T05:16:56.375Z,-3.191223
2019-02-05T05:18:05.884Z,-3.302002
2019-02-05T05:19:16.395Z,-3.312073
2019-02-05T05:20:25.913Z,-3.352356
2019-02-05T05:21:35.449Z,-3.382568
2019-02-05T05:22:44.978Z,-3.442993
2019-02-05T05:23:54.511Z,-3.463135
2019-02-05T05:25:04.027Z,-3.493347
2019-02-05T05:26:13.541Z,-3.52356
2019-02-05T05:27:23.055Z,-3.583984
2019-02-05T05:28:32.605Z,-3.594055
2019-02-05T05:29:42.117Z,-3.594055
2019-02-05T05:30:51.645Z,-3.614197
2019-02-05T05:32:01.176Z,-3.644409
2019-02-05T05:33:10.692Z,-3.644409
2019-02-05T05:34:20.220Z,-3.735046
2019-02-05T05:35:40.600Z,-3.795471
2019-02-05T05:36:40.240Z,-3.855896
2019-02-05T05:37:49.766Z,-3.876038
2019-02-05T05:38:59.487Z,-3.90625
2019-02-05T05:40:09.012Z,-3.90625
2019-02-05T05:41:18.726Z,-3.926392
2019-02-05T05:42:28.332Z,-3.916321
2019-02-05T05:43:37.909Z,-3.90625
2019-02-05T05:44:47.431Z,-3.916321
2019-02-05T05:45:56.977Z,-3.926392
2019-02-05T05:47:06.500Z,-3.926392
2019-02-05T05:48:16.014Z,-3.926392
2019-02-05T05:49:25.541Z,-3.916321
2019-02-05T05:50:35.059Z,-3.926392
2019-02-05T05:51:44.588Z,-3.926392
2019-02-05T05:52:54.118Z,-3.946533
2019-02-05T05:54:03.698Z,-3.946533
2019-02-05T05:55:13.221Z,-3.946533
2019-02-05T05:56:22.752Z,-3.946533
2019-02-05T05:57:32.284Z,-3.926392
2019-02-05T05:58:41.818Z,-3.926392
2019-02-05T05:59:51.415Z,-3.926392
2019-02-05T06:01:00.938Z,-3.926392
2019-02-05T06:02:10.471Z,-3.926392
2019-02-05T06:03:20.011Z,-3.946533
2019-02-05T06:04:29.537Z,-3.946533
2019-02-05T06:05:39.053Z,-3.956604
2019-02-05T06:06:48.577Z,-3.976746
2019-02-05T06:07:58.101Z,-3.986816
2019-02-05T06:09:07.638Z,-4.0271
2019-02-05T06:10:17.183Z,-4.057312
2019-02-05T06:11:26.696Z,-4.087524
2019-02-05T06:12:36.234Z,-4.097595
2019-02-05T06:13:45.758Z,-4.117737
2019-02-05T06:14:55.309Z,-4.127808
2019-02-05T06:16:04.857Z,-4.137878
2019-02-05T06:17:14.368Z,-4.168091
2019-02-05T06:18:23.891Z,-4.208374
2019-02-05T06:19:33.436Z,-4.218445
2019-02-05T06:20:42.948Z,-4.218445
2019-02-05T06:21:52.470Z,-4.248657
2019-02-05T06:23:01.994Z,-4.248657
2019-02-05T06:24:11.554Z,-4.268799
2019-02-05T06:25:21.206Z,-4.27887
2019-02-05T06:26:30.723Z,-4.299011
2019-02-05T06:27:40.286Z,-4.309082
2019-02-05T06:28:49.810Z,-4.309082
2019-02-05T06:30:00.368Z,-4.319153
2019-02-05T06:31:09.876Z,-4.339294
2019-02-05T06:32:19.463Z,-4.379578
2019-02-05T06:33:28.999Z,-4.379578
2019-02-05T06:34:38.575Z,-4.40979
2019-02-05T06:35:48.097Z,-4.429932
2019-02-05T06:36:57.617Z,-4.460144
2019-02-05T06:38:07.148Z,-4.480286
2019-02-05T06:39:16.693Z,-4.490356
2019-02-05T06:40:26.207Z,-4.490356
2019-02-05T06:41:35.736Z,-4.53064
2019-02-05T06:42:45.269Z,-4.550781
2019-02-05T06:43:54.791Z,-4.550781
2019-02-05T06:45:04.361Z,-4.550781
2019-02-05T06:46:13.890Z,-4.520569
2019-02-05T06:47:23.394Z,-4.520569
2019-02-05T06:48:32.935Z,-4.53064
2019-02-05T06:49:42.468Z,-4.53064
2019-02-05T06:50:52.024Z,-4.570923
2019-02-05T06:52:01.541Z,-4.601135
2019-02-05T06:53:11.061Z,-4.631348
2019-02-05T06:54:20.601Z,-4.631348
2019-02-05T06:55:30.165Z,-4.591064
2019-02-05T06:56:42.306Z,-4.53064
2019-02-05T06:57:49.192Z,-4.53064
2019-02-05T06:58:58.746Z,-4.53064
2019-02-05T07:00:08.285Z,-4.550781
2019-02-05T07:01:17.797Z,-4.550781
2019-02-05T07:02:27.329Z,-4.570923
2019-02-05T07:03:36.856Z,-4.601135
2019-02-05T07:04:46.422Z,-4.66156
2019-02-05T07:05:55.984Z,-4.701843
2019-02-05T07:07:05.507Z,-4.732056
2019-02-05T07:08:15.030Z,-4.78241
2019-02-05T07:09:24.565Z,-4.79248
2019-02-05T07:10:34.103Z,-4.822693
2019-02-05T07:11:43.621Z,-4.822693
2019-02-05T07:12:53.157Z,-4.822693
2019-02-05T07:14:02.703Z,-4.842834
2019-02-05T07:15:12.242Z,-4.822693
2019-02-05T07:16:21.765Z,-4.883118
2019-02-05T07:17:31.306Z,-4.953613
2019-02-05T07:18:41.831Z,-4.993896
2019-02-05T07:19:51.369Z,-5.054321
2019-02-05T07:21:00.888Z,-5.064392
2019-02-05T07:22:10.419Z,-5.054321
2019-02-05T07:23:19.949Z,-5.03418
2019-02-05T07:24:29.464Z,-4.993896
2019-02-05T07:25:39.053Z,-5.024109
2019-02-05T07:26:48.628Z,-5.024109
2019-02-05T07:27:58.164Z,-4.993896
2019-02-05T07:29:07.711Z,-4.983826
2019-02-05T07:30:17.257Z,-4.983826
2019-02-05T07:31:26.791Z,-4.993896
2019-02-05T07:32:36.312Z,-5.003967
2019-02-05T07:33:45.862Z,-5.03418
2019-02-05T07:34:55.403Z,-5.064392
2019-02-05T07:36:04.960Z,-5.094604
2019-02-05T07:37:14.482Z,-5.084534
2019-02-05T07:38:23.994Z,-5.064392
2019-02-05T07:39:33.508Z,-5.03418
2019-02-05T07:40:43.050Z,-4.993896
2019-02-05T07:41:52.580Z,-4.963684
2019-02-05T07:43:02.101Z,-4.91333
2019-02-05T07:44:11.631Z,-4.78241
2019-02-05T07:45:21.180Z,-4.66156
2019-02-05T07:46:30.757Z,-4.500427
2019-02-05T07:47:40.288Z,-4.319153
2019-02-05T07:48:49.811Z,-4.137878
2019-02-05T07:49:59.342Z,-3.956604
2019-02-05T07:51:08.877Z,-3.795471
2019-02-05T07:52:18.418Z,-3.614197
2019-02-05T07:53:27.941Z,-3.483276
2019-02-05T07:54:37.461Z,-3.312073
2019-02-05T07:55:47.014Z,-3.15094
2019-02-05T07:56:56.537Z,-2.939453
2019-02-05T07:58:06.069Z,-2.657471
2019-02-05T07:59:15.597Z,-2.466125
2019-02-05T08:00:25.149Z,-2.224426
2019-02-05T08:01:34.660Z,-1.982727
2019-02-05T08:02:44.188Z,-1.710815
2019-02-05T08:03:53.718Z,-1.529541
2019-02-05T08:05:03.288Z,-1.469116
2019-02-05T08:06:12.830Z,-1.398621
2019-02-05T08:07:22.370Z,-1.328125
2019-02-05T08:08:31.928Z,-1.328125
2019-02-05T08:09:41.481Z,-1.318054
2019-02-05T08:10:51.038Z,-1.378479
2019-02-05T08:12:00.579Z,-1.428833
2019-02-05T08:13:10.088Z,-1.438904
2019-02-05T08:14:19.601Z,-1.428833
2019-02-05T08:15:29.133Z,-1.348267
2019-02-05T08:16:38.677Z,-1.318054
2019-02-05T08:17:49.191Z,-1.318054
2019-02-05T08:18:58.729Z,-1.287842
2019-02-05T08:20:08.265Z,-1.217346
2019-02-05T08:21:17.824Z,-1.086426
2019-02-05T08:22:27.338Z,-0.955505
2019-02-05T08:23:36.862Z,-0.854797
2019-02-05T08:24:46.393Z,-0.623169
2019-02-05T08:25:55.969Z,-0.673523
2019-02-05T08:27:05.485Z,-0.744019
2019-02-05T08:28:15.078Z,-0.613098
2019-02-05T08:29:24.610Z,-0.38147
2019-02-05T08:30:34.143Z,-0.1297
2019-02-05T08:31:43.659Z,-0.169983
2019-02-05T08:32:53.185Z,-0.069275
2019-02-05T08:34:03.388Z,0.112
2019-02-05T08:35:12.240Z,0.263062
2019-02-05T08:36:21.774Z,0.313416
2019-02-05T08:37:31.310Z,0.232849
2019-02-05T08:38:40.829Z,0.37384
2019-02-05T08:39:50.362Z,0.524902
2019-02-05T08:40:59.905Z,0.675964
2019-02-05T08:42:09.462Z,0.776672
2019-02-05T08:43:19.012Z,0.937805
2019-02-05T08:44:28.539Z,1.048584
2019-02-05T08:45:38.078Z,1.229858
2019-02-05T08:46:48.611Z,1.300354
2019-02-05T08:47:58.125Z,1.219788
2019-02-05T08:49:07.639Z,1.199646
2019-02-05T08:50:17.196Z,1.280212
2019-02-05T08:51:27.727Z,1.421204
2019-02-05T08:52:37.256Z,1.521912
2019-02-05T08:53:46.786Z,1.582336
2019-02-05T08:54:56.335Z,1.662903
2019-02-05T08:56:05.878Z,1.763611
2019-02-05T08:57:15.393Z,1.783752
2019-02-05T08:58:30.863Z,1.924744
2019-02-05T08:59:34.440Z,1.944885
2019-02-05T09:00:43.991Z,2.015381
2019-02-05T09:01:53.531Z,2.106018
2019-02-05T09:03:03.143Z,2.075806
2019-02-05T09:04:12.591Z,2.095947
2019-02-05T09:05:22.115Z,2.065735
2019-02-05T09:06:31.662Z,2.146301
2019-02-05T09:07:41.173Z,2.166443
2019-02-05T09:08:50.696Z,2.307434
2019-02-05T09:10:00.359Z,2.438354
2019-02-05T09:11:09.796Z,2.498779
2019-02-05T09:12:19.320Z,2.619629
2019-02-05T09:13:28.842Z,2.680054
2019-02-05T09:14:38.368Z,2.619629
2019-02-05T09:15:47.909Z,2.619629
2019-02-05T09:16:57.497Z,2.690125
2019-02-05T09:18:07.018Z,2.821045
2019-02-05T09:19:16.546Z,2.972107
2019-02-05T09:20:26.105Z,3.26416
2019-02-05T09:21:35.641Z,3.445435
2019-02-05T09:22:45.187Z,3.687134
2019-02-05T09:23:54.718Z,3.959045
2019-02-05T09:25:04.242Z,4.01947
2019-02-05T09:26:13.787Z,3.858337
2019-02-05T09:27:23.322Z,3.526001
2019-02-05T09:28:32.913Z,3.405151
2019-02-05T09:29:42.368Z,3.254089
2019-02-05T09:30:51.896Z,3.163452
2019-02-05T09:32:01.432Z,3.324585
2019-02-05T09:33:10.956Z,3.546143
2019-02-05T09:34:20.494Z,3.697205
2019-02-05T09:35:30.052Z,3.878479
2019-02-05T09:36:39.639Z,3.807983
2019-02-05T09:37:49.164Z,3.656921
2019-02-05T09:38:58.695Z,3.737488
2019-02-05T09:40:08.254Z,3.908691
2019-02-05T09:41:17.835Z,3.878479
2019-02-05T09:42:27.353Z,3.878479
2019-02-05T09:43:36.900Z,3.948975
2019-02-05T09:44:46.405Z,3.948975
2019-02-05T09:45:55.928Z,3.737488
2019-02-05T09:47:05.512Z,3.616638
2019-02-05T09:48:15.037Z,3.596497
2019-02-05T09:49:24.577Z,3.727417
2019-02-05T09:50:44.009Z,3.868408
2019-02-05T09:51:44.665Z,4.009399
2019-02-05T09:52:54.201Z,4.220886
2019-02-05T09:54:03.718Z,4.200745
2019-02-05T09:55:13.257Z,4.281311
2019-02-05T09:56:22.809Z,4.311523
2019-02-05T09:57:32.351Z,4.492798
2019-02-05T09:58:41.863Z,4.623718
2019-02-05T09:59:51.396Z,4.744568
2019-02-05T10:01:00.918Z,4.925842
2019-02-05T10:02:10.445Z,4.986267
2019-02-05T10:03:19.973Z,4.935913
2019-02-05T10:04:29.493Z,4.935913
2019-02-05T10:05:39.024Z,5.076904
2019-02-05T10:06:50.049Z,5.207825
2019-02-05T10:07:58.096Z,5.288391
2019-02-05T10:09:07.626Z,5.318604
2019-02-05T10:10:17.182Z,5.348816
2019-02-05T10:11:26.720Z,5.429382
2019-02-05T10:12:36.244Z,5.328674
2019-02-05T10:13:46.765Z,5.258179
2019-02-05T10:14:56.273Z,5.046692
2019-02-05T10:16:05.831Z,5.076904
2019-02-05T10:17:15.384Z,4.966125
2019-02-05T10:18:24.908Z,4.865417
2019-02-05T10:19:34.414Z,4.754639
2019-02-05T10:20:43.936Z,4.583435
2019-02-05T10:21:53.500Z,4.422302
2019-02-05T10:23:03.026Z,4.593506
2019-02-05T10:24:12.556Z,4.744568
2019-02-05T10:25:22.091Z,4.996338
2019-02-05T10:26:31.647Z,5.046692
2019-02-05T10:27:41.170Z,5.137329
2019-02-05T10:28:50.713Z,5.097046
2019-02-05T10:30:00.239Z,4.986267
2019-02-05T10:31:09.766Z,4.996338
2019-02-05T10:32:19.331Z,5.117188
2019-02-05T10:33:28.859Z,5.207825
2019-02-05T10:34:38.387Z,5.459595
2019-02-05T10:35:47.925Z,5.590515
2019-02-05T10:36:57.462Z,5.691223
2019-02-05T10:38:06.982Z,5.942993
2019-02-05T10:39:17.500Z,6.204834
2019-02-05T10:40:27.036Z,6.486816
2019-02-05T10:41:36.594Z,6.617737
2019-02-05T10:42:46.130Z,6.446533
2019-02-05T10:43:55.659Z,6.305542
2019-02-05T10:45:05.206Z,6.265259
2019-02-05T10:46:14.740Z,6.456604
2019-02-05T10:47:24.289Z,6.486816
2019-02-05T10:48:33.812Z,6.617737
2019-02-05T10:49:43.351Z,6.668091
2019-02-05T10:50:52.976Z,6.668091
2019-02-05T10:52:02.424Z,6.77887
2019-02-05T10:53:11.946Z,6.950073
2019-02-05T10:54:21.463Z,7.060852
2019-02-05T10:55:30.980Z,7.151489
2019-02-05T10:56:40.519Z,7.211914
2019-02-05T10:57:50.041Z,7.312622
2019-02-05T10:58:59.559Z,7.383118
2019-02-05T11:00:09.339Z,7.332764
2019-02-05T11:01:18.628Z,7.211914
2019-02-05T11:02:28.176Z,7.020569
2019-02-05T11:03:37.798Z,6.889648
2019-02-05T11:04:47.309Z,6.869507
2019-02-05T11:05:56.862Z,6.889648
2019-02-05T11:07:06.428Z,7.000427
2019-02-05T11:08:15.969Z,6.929932
2019-02-05T11:09:25.541Z,6.970215
2019-02-05T11:10:35.036Z,7.070923
2019-02-05T11:11:44.558Z,7.171631
2019-02-05T11:12:54.076Z,7.141418
2019-02-05T11:14:03.590Z,6.698303
2019-02-05T11:15:13.127Z,6.738586
2019-02-05T11:16:22.634Z,6.78894
2019-02-05T11:17:32.182Z,6.970215
2019-02-05T11:18:41.724Z,7.131348
2019-02-05T11:19:51.249Z,7.181702
2019-02-05T11:21:00.776Z,7.322693
2019-02-05T11:22:10.336Z,7.29248
2019-02-05T11:23:19.867Z,7.252197
2019-02-05T11:24:29.385Z,6.819153
2019-02-05T11:25:38.914Z,6.718445
2019-02-05T11:26:48.490Z,6.688232
2019-02-05T11:27:57.999Z,6.65802
2019-02-05T11:29:07.510Z,6.768799
2019-02-05T11:30:20.157Z,6.919861
2019-02-05T11:31:26.531Z,7.03064
2019-02-05T11:32:36.085Z,7.232056
2019-02-05T11:33:45.600Z,7.312622
2019-02-05T11:34:55.115Z,7.131348
2019-02-05T11:36:04.629Z,7.141418
2019-02-05T11:37:14.147Z,7.211914
2019-02-05T11:38:23.668Z,7.29248
2019-02-05T11:39:33.190Z,7.322693
2019-02-05T11:40:42.731Z,7.433472
2019-02-05T11:41:52.244Z,7.604675
2019-02-05T11:43:01.817Z,7.765808
2019-02-05T11:44:11.364Z,7.846375
2019-02-05T11:45:20.884Z,7.846375
2019-02-05T11:46:30.395Z,7.473755
2019-02-05T11:47:39.924Z,7.393188
2019-02-05T11:48:49.482Z,7.433472
2019-02-05T11:49:59.004Z,7.574463
2019-02-05T11:51:08.553Z,7.574463
2019-02-05T11:52:18.084Z,7.473755
2019-02-05T11:53:27.611Z,7.564392
2019-02-05T11:54:37.196Z,7.574463
2019-02-05T11:55:46.718Z,7.655029
2019-02-05T11:56:56.241Z,7.796021
2019-02-05T11:58:05.780Z,7.896729
2019-02-05T11:59:15.317Z,7.846375
2019-02-05T12:00:32.016Z,7.876587
2019-02-05T12:01:38.662Z,7.906799
2019-02-05T12:02:43.878Z,8.027649
2019-02-05T12:03:53.386Z,8.188782
2019-02-05T12:05:02.918Z,8.198853
2019-02-05T12:06:12.457Z,7.977295
2019-02-05T12:07:22.000Z,8.098145
2019-02-05T12:08:31.573Z,8.259277
2019-02-05T12:09:41.093Z,8.460693
2019-02-05T12:10:50.671Z,8.611755
2019-02-05T12:12:00.217Z,8.92395
2019-02-05T12:13:09.772Z,9.034729
2019-02-05T12:14:19.304Z,9.155579
2019-02-05T12:15:28.846Z,9.246216
2019-02-05T12:16:38.386Z,9.467773
2019-02-05T12:17:47.949Z,9.638977
2019-02-05T12:18:57.485Z,9.860535
2019-02-05T12:20:07.014Z,10.072021
2019-02-05T12:21:16.546Z,10.253296
2019-02-05T12:22:26.080Z,10.253296
2019-02-05T12:23:35.642Z,10.30365
2019-02-05T12:24:45.178Z,10.484924
2019-02-05T12:25:54.711Z,10.68634
2019-02-05T12:27:04.243Z,10.787048
2019-02-05T12:28:13.782Z,10.897827
2019-02-05T12:29:23.314Z,10.958252
2019-02-05T12:30:43.791Z,11.079102
2019-02-05T12:31:43.335Z,10.988464
2019-02-05T12:32:52.956Z,10.776978
2019-02-05T12:34:02.484Z,10.787048
2019-02-05T12:35:12.031Z,10.756836
2019-02-05T12:36:21.554Z,10.666199
2019-02-05T12:37:31.101Z,10.605774
2019-02-05T12:38:40.670Z,10.605774
2019-02-05T12:39:50.229Z,10.625916
2019-02-05T12:40:59.755Z,10.55542
2019-02-05T12:42:09.300Z,10.666199
2019-02-05T12:43:18.860Z,10.67627
2019-02-05T12:44:28.403Z,10.706482
2019-02-05T12:45:37.924Z,10.505066
2019-02-05T12:46:47.467Z,10.605774
2019-02-05T12:47:56.998Z,10.736694
2019-02-05T12:49:06.515Z,10.756836
2019-02-05T12:50:16.100Z,10.897827
2019-02-05T12:51:25.581Z,10.787048
2019-02-05T12:52:35.107Z,10.716553
2019-02-05T12:53:44.639Z,10.787048
2019-02-05T12:54:54.164Z,10.968323
2019-02-05T12:56:04.690Z,11.099243
2019-02-05T12:57:14.203Z,11.099243
2019-02-05T12:58:23.747Z,11.069031
2019-02-05T12:59:33.275Z,11.139526
2019-02-05T13:00:42.797Z,11.038818
2019-02-05T13:01:53.282Z,10.68634
2019-02-05T13:03:02.843Z,10.605774
2019-02-05T13:04:12.361Z,10.595703
2019-02-05T13:05:21.888Z,10.484924
2019-02-05T13:06:31.416Z,10.55542
2019-02-05T13:07:40.947Z,10.605774
2019-02-05T13:08:50.493Z,10.67627
2019-02-05T13:10:00.016Z,10.635986
2019-02-05T13:11:09.542Z,10.505066
2019-02-05T13:12:19.077Z,10.30365
2019-02-05T13:13:28.626Z,10.505066
2019-02-05T13:14:38.166Z,10.4245
2019-02-05T13:15:47.683Z,10.4245
2019-02-05T13:16:57.206Z,10.404358
2019-02-05T13:18:06.747Z,10.444641
2019-02-05T13:19:16.280Z,10.122375
2019-02-05T13:20:25.812Z,10.253296
2019-02-05T13:21:35.342Z,10.343933